Terminal Aerodrome Forecast
Issued by NWS

Current Version | Previous Version | Text Only | Print | Product List | Glossary On
Versions: 1 2 3 4 5 6 7 8 9 10 11 12 13 14 15 16
000
FTUS43 KDTX 062320
TAFMBS
TAF
KMBS 062320Z 0700/0724 05004KT P6SM SKC
     FM070900 15003KT 3SM BR SKC
     FM071500 18005KT P6SM SCT050=

USA.gov is the U.S. government's official web portal to all federal, state and local government web resources and services.